sensor_id;sensor_type;location;lat;lon;timestamp;temperature;humidity
11304;DHT22;5707;49.588;12.148;2023-07-28T00:01:56;15.40;99.90
11304;DHT22;5707;49.588;12.148;2023-07-28T00:04:21;15.40;99.90
11304;DHT22;5707;49.588;12.148;2023-07-28T00:06:47;15.40;99.90
11304;DHT22;5707;49.588;12.148;2023-07-28T00:09:12;15.40;99.90
11304;DHT22;5707;49.588;12.148;2023-07-28T00:11:38;15.40;99.90
11304;DHT22;5707;49.588;12.148;2023-07-28T00:14:04;15.30;99.90
11304;DHT22;5707;49.588;12.148;2023-07-28T00:16:29;15.40;99.90
11304;DHT22;5707;49.588;12.148;2023-07-28T00:18:55;15.40;99.90
11304;DHT22;5707;49.588;12.148;2023-07-28T00:21:20;15.40;99.90
11304;DHT22;5707;49.588;12.148;2023-07-28T00:23:46;15.40;99.90
11304;DHT22;5707;49.588;12.148;2023-07-28T00:26:11;15.40;99.90
11304;DHT22;5707;49.588;12.148;2023-07-28T00:28:37;15.40;99.90
11304;DHT22;5707;49.588;12.148;2023-07-28T00:31:02;15.30;99.90
11304;DHT22;5707;49.588;12.148;2023-07-28T00:33:28;15.30;99.90
11304;DHT22;5707;49.588;12.148;2023-07-28T00:35:53;15.30;99.90
11304;DHT22;5707;49.588;12.148;2023-07-28T00:38:19;15.30;99.90
11304;DHT22;5707;49.588;12.148;2023-07-28T00:40:44;15.30;99.90
11304;DHT22;5707;49.588;12.148;2023-07-28T00:43:10;15.30;99.90
11304;DHT22;5707;49.588;12.148;2023-07-28T00:45:36;15.30;99.90
11304;DHT22;5707;49.588;12.148;2023-07-28T00:48:01;15.30;99.90
11304;DHT22;5707;49.588;12.148;2023-07-28T00:50:27;15.30;99.90
11304;DHT22;5707;49.588;12.148;2023-07-28T00:52:55;15.40;99.90
11304;DHT22;5707;49.588;12.148;2023-07-28T00:55:21;15.40;99.90
11304;DHT22;5707;49.588;12.148;2023-07-28T00:57:47;15.40;99.90
11304;DHT22;5707;49.588;12.148;2023-07-28T01:00:13;15.40;99.90
11304;DHT22;5707;49.588;12.148;2023-07-28T01:02:38;15.40;99.90
11304;DHT22;5707;49.588;12.148;2023-07-28T01:05:05;15.40;99.90
11304;DHT22;5707;49.588;12.148;2023-07-28T01:07:44;15.50;99.90
11304;DHT22;5707;49.588;12.148;2023-07-28T01:10:17;15.50;99.90
11304;DHT22;5707;49.588;12.148;2023-07-28T01:12:43;15.50;99.90
11304;DHT22;5707;49.588;12.148;2023-07-28T01:15:09;15.50;99.90
11304;DHT22;5707;49.588;12.148;2023-07-28T01:17:35;15.50;99.90
11304;DHT22;5707;49.588;12.148;2023-07-28T01:20:01;15.50;99.90
11304;DHT22;5707;49.588;12.148;2023-07-28T01:27:56;15.50;99.90
11304;DHT22;5707;49.588;12.148;2023-07-28T01:30:23;15.50;99.90
11304;DHT22;5707;49.588;12.148;2023-07-28T01:32:51;15.50;99.90
11304;DHT22;5707;49.588;12.148;2023-07-28T01:35:19;15.50;99.90
11304;DHT22;5707;49.588;12.148;2023-07-28T01:37:44;15.50;99.90
11304;DHT22;5707;49.588;12.148;2023-07-28T01:40:10;15.50;99.90
11304;DHT22;5707;49.588;12.148;2023-07-28T01:42:36;15.50;99.90
11304;DHT22;5707;49.588;12.148;2023-07-28T01:45:02;15.50;99.90
11304;DHT22;5707;49.588;12.148;2023-07-28T01:47:28;15.50;99.90
11304;DHT22;5707;49.588;12.148;2023-07-28T01:49:54;15.50;99.90
11304;DHT22;5707;49.588;12.148;2023-07-28T01:52:20;15.50;99.90
11304;DHT22;5707;49.588;12.148;2023-07-28T01:54:47;15.50;99.90
11304;DHT22;5707;49.588;12.148;2023-07-28T01:57:12;15.50;99.90
11304;DHT22;5707;49.588;12.148;2023-07-28T01:59:38;15.50;99.90
11304;DHT22;5707;49.588;12.148;2023-07-28T02:02:03;15.50;99.90
11304;DHT22;5707;49.588;12.148;2023-07-28T02:04:29;15.50;99.90
11304;DHT22;5707;49.588;12.148;2023-07-28T02:06:54;15.50;99.90
11304;DHT22;5707;49.588;12.148;2023-07-28T02:09:20;15.50;99.90
11304;DHT22;5707;49.588;12.148;2023-07-28T02:11:45;15.50;99.90
11304;DHT22;5707;49.588;12.148;2023-07-28T02:14:11;15.50;99.90
11304;DHT22;5707;49.588;12.148;2023-07-28T02:16:36;15.50;99.90
11304;DHT22;5707;49.588;12.148;2023-07-28T02:19:02;15.50;99.90
11304;DHT22;5707;49.588;12.148;2023-07-28T02:21:27;15.60;99.90
11304;DHT22;5707;49.588;12.148;2023-07-28T02:23:53;15.60;99.90
11304;DHT22;5707;49.588;12.148;2023-07-28T02:26:19;15.60;99.90
11304;DHT22;5707;49.588;12.148;2023-07-28T02:28:44;15.60;99.90
11304;DHT22;5707;49.588;12.148;2023-07-28T02:31:10;15.60;99.90
11304;DHT22;5707;49.588;12.148;2023-07-28T02:33:35;15.60;99.90
11304;DHT22;5707;49.588;12.148;2023-07-28T02:36:05;15.70;99.90
11304;DHT22;5707;49.588;12.148;2023-07-28T02:38:30;15.70;99.90
11304;DHT22;5707;49.588;12.148;2023-07-28T02:40:56;15.70;99.90
11304;DHT22;5707;49.588;12.148;2023-07-28T02:43:21;15.70;99.90
11304;DHT22;5707;49.588;12.148;2023-07-28T02:45:54;15.70;99.90
11304;DHT22;5707;49.588;12.148;2023-07-28T02:48:20;15.70;99.90
11304;DHT22;5707;49.588;12.148;2023-07-28T02:50:47;15.70;99.90
11304;DHT22;5707;49.588;12.148;2023-07-28T02:53:13;15.70;99.90
11304;DHT22;5707;49.588;12.148;2023-07-28T02:55:46;15.70;99.90
11304;DHT22;5707;49.588;12.148;2023-07-28T02:58:12;15.70;99.90
11304;DHT22;5707;49.588;12.148;2023-07-28T03:00:39;15.70;99.90
11304;DHT22;5707;49.588;12.148;2023-07-28T03:03:05;15.70;99.90
11304;DHT22;5707;49.588;12.148;2023-07-28T03:05:31;15.70;99.90
11304;DHT22;5707;49.588;12.148;2023-07-28T03:07:57;15.70;99.90
11304;DHT22;5707;49.588;12.148;2023-07-28T03:10:23;15.70;99.90
11304;DHT22;5707;49.588;12.148;2023-07-28T03:12:49;15.70;99.90
11304;DHT22;5707;49.588;12.148;2023-07-28T03:15:14;15.70;99.90
11304;DHT22;5707;49.588;12.148;2023-07-28T03:17:40;15.70;99.90
11304;DHT22;5707;49.588;12.148;2023-07-28T03:20:06;15.70;99.90
11304;DHT22;5707;49.588;12.148;2023-07-28T03:22:32;15.60;99.90
11304;DHT22;5707;49.588;12.148;2023-07-28T03:24:57;15.60;99.90
11304;DHT22;5707;49.588;12.148;2023-07-28T03:27:23;15.60;99.90
11304;DHT22;5707;49.588;12.148;2023-07-28T03:29:48;15.60;99.90
11304;DHT22;5707;49.588;12.148;2023-07-28T03:32:14;15.60;99.90
11304;DHT22;5707;49.588;12.148;2023-07-28T03:34:40;15.60;99.90
11304;DHT22;5707;49.588;12.148;2023-07-28T03:37:05;15.60;99.90
11304;DHT22;5707;49.588;12.148;2023-07-28T03:39:31;15.60;99.90
11304;DHT22;5707;49.588;12.148;2023-07-28T03:41:57;15.60;99.90
11304;DHT22;5707;49.588;12.148;2023-07-28T03:44:23;15.60;99.90
11304;DHT22;5707;49.588;12.148;2023-07-28T03:46:48;15.60;99.90
11304;DHT22;5707;49.588;12.148;2023-07-28T03:49:14;15.60;99.90
11304;DHT22;5707;49.588;12.148;2023-07-28T03:51:40;15.60;99.90
11304;DHT22;5707;49.588;12.148;2023-07-28T03:54:05;15.60;99.90
11304;DHT22;5707;49.588;12.148;2023-07-28T03:56:31;15.70;99.90
11304;DHT22;5707;49.588;12.148;2023-07-28T03:58:56;15.60;99.90
11304;DHT22;5707;49.588;12.148;2023-07-28T04:01:22;15.70;99.90
11304;DHT22;5707;49.588;12.148;2023-07-28T04:03:48;15.70;99.90
11304;DHT22;5707;49.588;12.148;2023-07-28T04:06:13;15.70;99.90
11304;DHT22;5707;49.588;12.148;2023-07-28T04:08:42;15.70;99.90
11304;DHT22;5707;49.588;12.148;2023-07-28T04:11:07;15.70;99.90
11304;DHT22;5707;49.588;12.148;2023-07-28T04:13:34;15.70;99.90
11304;DHT22;5707;49.588;12.148;2023-07-28T04:16:00;15.70;99.90
11304;DHT22;5707;49.588;12.148;2023-07-28T04:18:26;15.80;99.90
11304;DHT22;5707;49.588;12.148;2023-07-28T04:20:51;15.80;99.90
11304;DHT22;5707;49.588;12.148;2023-07-28T04:23:17;15.90;99.90
11304;DHT22;5707;49.588;12.148;2023-07-28T04:25:42;15.90;99.90
11304;DHT22;5707;49.588;12.148;2023-07-28T04:28:08;15.90;99.90
11304;DHT22;5707;49.588;12.148;2023-07-28T04:30:34;15.90;99.90
11304;DHT22;5707;49.588;12.148;2023-07-28T04:33:00;16.00;99.90
11304;DHT22;5707;49.588;12.148;2023-07-28T04:35:25;16.00;99.90
11304;DHT22;5707;49.588;12.148;2023-07-28T04:37:51;16.00;99.90
11304;DHT22;5707;49.588;12.148;2023-07-28T04:40:16;16.10;99.90
11304;DHT22;5707;49.588;12.148;2023-07-28T04:42:42;16.10;99.90
11304;DHT22;5707;49.588;12.148;2023-07-28T04:45:08;16.10;99.90
11304;DHT22;5707;49.588;12.148;2023-07-28T04:47:34;16.20;99.90
11304;DHT22;5707;49.588;12.148;2023-07-28T04:49:59;16.20;99.90
11304;DHT22;5707;49.588;12.148;2023-07-28T04:52:25;16.30;99.90
11304;DHT22;5707;49.588;12.148;2023-07-28T04:54:50;16.40;99.90
11304;DHT22;5707;49.588;12.148;2023-07-28T04:57:16;16.50;99.90
11304;DHT22;5707;49.588;12.148;2023-07-28T04:59:43;16.60;99.90
11304;DHT22;5707;49.588;12.148;2023-07-28T05:02:09;16.60;99.90
11304;DHT22;5707;49.588;12.148;2023-07-28T05:04:34;16.70;99.90
11304;DHT22;5707;49.588;12.148;2023-07-28T05:07:02;16.70;99.90
11304;DHT22;5707;49.588;12.148;2023-07-28T05:09:28;16.70;99.90
11304;DHT22;5707;49.588;12.148;2023-07-28T05:11:54;16.80;99.90
11304;DHT22;5707;49.588;12.148;2023-07-28T05:14:20;17.00;99.90
11304;DHT22;5707;49.588;12.148;2023-07-28T05:16:46;17.20;99.90
11304;DHT22;5707;49.588;12.148;2023-07-28T05:19:12;17.40;99.90
11304;DHT22;5707;49.588;12.148;2023-07-28T05:21:38;17.60;99.90
11304;DHT22;5707;49.588;12.148;2023-07-28T05:24:04;17.70;99.90
11304;DHT22;5707;49.588;12.148;2023-07-28T05:26:29;17.70;99.90
11304;DHT22;5707;49.588;12.148;2023-07-28T05:28:55;17.70;99.90
11304;DHT22;5707;49.588;12.148;2023-07-28T05:31:21;17.70;99.90
11304;DHT22;5707;49.588;12.148;2023-07-28T05:33:46;17.80;99.90
11304;DHT22;5707;49.588;12.148;2023-07-28T05:36:12;18.00;99.90
11304;DHT22;5707;49.588;12.148;2023-07-28T05:38:37;18.20;99.90
11304;DHT22;5707;49.588;12.148;2023-07-28T05:41:04;18.30;99.90
11304;DHT22;5707;49.588;12.148;2023-07-28T05:43:30;18.40;99.90
11304;DHT22;5707;49.588;12.148;2023-07-28T05:45:58;18.60;99.90
11304;DHT22;5707;49.588;12.148;2023-07-28T05:48:24;18.70;99.90
11304;DHT22;5707;49.588;12.148;2023-07-28T05:50:50;18.60;99.90
11304;DHT22;5707;49.588;12.148;2023-07-28T05:53:17;18.30;99.90
11304;DHT22;5707;49.588;12.148;2023-07-28T05:55:43;18.20;99.90
11304;DHT22;5707;49.588;12.148;2023-07-28T05:58:08;18.10;99.90
11304;DHT22;5707;49.588;12.148;2023-07-28T06:00:34;18.10;99.90
11304;DHT22;5707;49.588;12.148;2023-07-28T06:02:59;18.00;99.90
11304;DHT22;5707;49.588;12.148;2023-07-28T06:05:25;18.10;99.90
11304;DHT22;5707;49.588;12.148;2023-07-28T06:07:50;18.10;99.90
11304;DHT22;5707;49.588;12.148;2023-07-28T06:10:16;18.10;99.90
11304;DHT22;5707;49.588;12.148;2023-07-28T06:12:41;18.20;99.90
11304;DHT22;5707;49.588;12.148;2023-07-28T06:15:07;18.30;99.90
11304;DHT22;5707;49.588;12.148;2023-07-28T06:17:33;18.60;99.90
11304;DHT22;5707;49.588;12.148;2023-07-28T06:19:59;18.70;99.90
11304;DHT22;5707;49.588;12.148;2023-07-28T06:22:24;18.80;99.90
11304;DHT22;5707;49.588;12.148;2023-07-28T06:24:50;18.90;99.90
11304;DHT22;5707;49.588;12.148;2023-07-28T06:27:15;19.10;99.90
11304;DHT22;5707;49.588;12.148;2023-07-28T06:29:41;19.30;99.90
11304;DHT22;5707;49.588;12.148;2023-07-28T06:32:07;19.20;99.90
11304;DHT22;5707;49.588;12.148;2023-07-28T06:34:33;19.10;99.90
11304;DHT22;5707;49.588;12.148;2023-07-28T06:36:58;18.90;99.90
11304;DHT22;5707;49.588;12.148;2023-07-28T06:39:24;18.90;99.90
11304;DHT22;5707;49.588;12.148;2023-07-28T06:41:50;19.10;99.90
11304;DHT22;5707;49.588;12.148;2023-07-28T06:44:16;19.20;99.90
11304;DHT22;5707;49.588;12.148;2023-07-28T06:46:41;19.10;99.90
11304;DHT22;5707;49.588;12.148;2023-07-28T06:49:07;19.20;99.90
11304;DHT22;5707;49.588;12.148;2023-07-28T06:51:33;19.20;99.90
11304;DHT22;5707;49.588;12.148;2023-07-28T06:53:59;19.10;99.90
11304;DHT22;5707;49.588;12.148;2023-07-28T06:56:25;19.10;99.90
11304;DHT22;5707;49.588;12.148;2023-07-28T06:58:50;19.10;99.90
11304;DHT22;5707;49.588;12.148;2023-07-28T07:01:16;19.00;99.90
11304;DHT22;5707;49.588;12.148;2023-07-28T07:03:43;18.90;99.90
11304;DHT22;5707;49.588;12.148;2023-07-28T07:06:09;18.80;99.90
11304;DHT22;5707;49.588;12.148;2023-07-28T07:08:34;18.70;99.90
11304;DHT22;5707;49.588;12.148;2023-07-28T07:11:00;18.80;99.90
11304;DHT22;5707;49.588;12.148;2023-07-28T07:13:25;18.90;99.90
11304;DHT22;5707;49.588;12.148;2023-07-28T07:15:51;18.90;99.90
11304;DHT22;5707;49.588;12.148;2023-07-28T07:18:17;19.00;99.90
11304;DHT22;5707;49.588;12.148;2023-07-28T07:20:43;19.10;99.90
11304;DHT22;5707;49.588;12.148;2023-07-28T07:23:08;19.00;99.90
11304;DHT22;5707;49.588;12.148;2023-07-28T07:25:34;19.10;99.90
11304;DHT22;5707;49.588;12.148;2023-07-28T07:27:59;19.30;99.90
11304;DHT22;5707;49.588;12.148;2023-07-28T07:30:25;19.80;99.90
11304;DHT22;5707;49.588;12.148;2023-07-28T07:32:50;20.50;99.90
11304;DHT22;5707;49.588;12.148;2023-07-28T07:35:16;21.30;99.90
11304;DHT22;5707;49.588;12.148;2023-07-28T07:37:42;22.10;99.90
11304;DHT22;5707;49.588;12.148;2023-07-28T07:40:09;22.50;99.90
11304;DHT22;5707;49.588;12.148;2023-07-28T07:42:46;22.70;99.90
11304;DHT22;5707;49.588;12.148;2023-07-28T07:45:13;22.70;99.90
11304;DHT22;5707;49.588;12.148;2023-07-28T07:47:40;22.90;99.90
11304;DHT22;5707;49.588;12.148;2023-07-28T07:50:07;22.80;99.90
11304;DHT22;5707;49.588;12.148;2023-07-28T07:52:37;22.50;99.90
11304;DHT22;5707;49.588;12.148;2023-07-28T07:55:03;22.50;99.90
11304;DHT22;5707;49.588;12.148;2023-07-28T07:57:29;22.50;99.90
11304;DHT22;5707;49.588;12.148;2023-07-28T07:59:57;22.60;99.90
11304;DHT22;5707;49.588;12.148;2023-07-28T08:02:23;22.70;99.90
11304;DHT22;5707;49.588;12.148;2023-07-28T08:04:48;22.70;99.90
11304;DHT22;5707;49.588;12.148;2023-07-28T08:07:14;22.30;99.90
11304;DHT22;5707;49.588;12.148;2023-07-28T08:09:41;21.90;99.90
11304;DHT22;5707;49.588;12.148;2023-07-28T08:12:08;21.50;99.90
11304;DHT22;5707;49.588;12.148;2023-07-28T08:14:34;21.30;99.90
11304;DHT22;5707;49.588;12.148;2023-07-28T08:16:59;21.10;99.90
11304;DHT22;5707;49.588;12.148;2023-07-28T08:19:25;21.10;99.90
11304;DHT22;5707;49.588;12.148;2023-07-28T08:21:51;21.10;99.90
11304;DHT22;5707;49.588;12.148;2023-07-28T08:24:16;21.30;99.90
11304;DHT22;5707;49.588;12.148;2023-07-28T08:26:42;21.50;99.90
11304;DHT22;5707;49.588;12.148;2023-07-28T08:29:08;21.60;99.90
11304;DHT22;5707;49.588;12.148;2023-07-28T08:31:33;21.80;99.90
11304;DHT22;5707;49.588;12.148;2023-07-28T08:33:59;21.90;99.90
11304;DHT22;5707;49.588;12.148;2023-07-28T08:36:24;22.00;99.90
11304;DHT22;5707;49.588;12.148;2023-07-28T08:38:50;22.40;99.90
11304;DHT22;5707;49.588;12.148;2023-07-28T08:41:15;23.10;99.90
11304;DHT22;5707;49.588;12.148;2023-07-28T08:43:42;23.30;99.90
11304;DHT22;5707;49.588;12.148;2023-07-28T08:46:07;23.30;99.90
11304;DHT22;5707;49.588;12.148;2023-07-28T08:48:33;23.40;99.90
11304;DHT22;5707;49.588;12.148;2023-07-28T08:50:59;23.40;99.90
11304;DHT22;5707;49.588;12.148;2023-07-28T08:53:24;23.20;99.90
11304;DHT22;5707;49.588;12.148;2023-07-28T08:55:51;23.00;99.90
11304;DHT22;5707;49.588;12.148;2023-07-28T08:58:22;23.20;99.90
11304;DHT22;5707;49.588;12.148;2023-07-28T09:00:50;23.30;99.90
11304;DHT22;5707;49.588;12.148;2023-07-28T09:03:17;23.10;99.90
11304;DHT22;5707;49.588;12.148;2023-07-28T09:05:43;22.90;99.90
11304;DHT22;5707;49.588;12.148;2023-07-28T09:08:12;22.60;99.90
11304;DHT22;5707;49.588;12.148;2023-07-28T09:10:45;22.40;99.90
11304;DHT22;5707;49.588;12.148;2023-07-28T09:13:12;22.20;99.90
11304;DHT22;5707;49.588;12.148;2023-07-28T09:15:39;22.20;99.90
11304;DHT22;5707;49.588;12.148;2023-07-28T09:18:08;22.30;99.90
11304;DHT22;5707;49.588;12.148;2023-07-28T09:20:35;22.60;99.90
11304;DHT22;5707;49.588;12.148;2023-07-28T09:23:02;23.00;99.90
11304;DHT22;5707;49.588;12.148;2023-07-28T09:25:29;23.50;99.90
11304;DHT22;5707;49.588;12.148;2023-07-28T09:27:55;23.70;99.90
11304;DHT22;5707;49.588;12.148;2023-07-28T09:30:21;24.20;99.90
11304;DHT22;5707;49.588;12.148;2023-07-28T09:32:53;24.10;99.90
11304;DHT22;5707;49.588;12.148;2023-07-28T09:35:21;23.80;99.90
11304;DHT22;5707;49.588;12.148;2023-07-28T09:37:49;24.30;99.90
11304;DHT22;5707;49.588;12.148;2023-07-28T09:40:18;24.80;99.90
11304;DHT22;5707;49.588;12.148;2023-07-28T09:42:45;24.80;99.90
11304;DHT22;5707;49.588;12.148;2023-07-28T09:45:15;25.20;99.90
11304;DHT22;5707;49.588;12.148;2023-07-28T09:47:44;25.20;99.90
11304;DHT22;5707;49.588;12.148;2023-07-28T09:50:11;24.80;99.90
11304;DHT22;5707;49.588;12.148;2023-07-28T09:52:45;24.50;99.90
11304;DHT22;5707;49.588;12.148;2023-07-28T09:55:11;24.70;99.90
11304;DHT22;5707;49.588;12.148;2023-07-28T09:57:50;25.00;99.90
11304;DHT22;5707;49.588;12.148;2023-07-28T10:00:20;25.40;99.90
11304;DHT22;5707;49.588;12.148;2023-07-28T10:02:46;25.90;99.90
11304;DHT22;5707;49.588;12.148;2023-07-28T10:05:12;26.20;99.90
11304;DHT22;5707;49.588;12.148;2023-07-28T10:07:44;25.80;99.90
11304;DHT22;5707;49.588;12.148;2023-07-28T10:10:11;25.20;99.90
11304;DHT22;5707;49.588;12.148;2023-07-28T10:12:49;24.40;99.90
11304;DHT22;5707;49.588;12.148;2023-07-28T10:15:20;23.80;99.90
11304;DHT22;5707;49.588;12.148;2023-07-28T10:17:49;23.50;99.90
11304;DHT22;5707;49.588;12.148;2023-07-28T10:20:34;23.10;99.90
11304;DHT22;5707;49.588;12.148;2023-07-28T10:25:39;22.20;99.90
11304;DHT22;5707;49.588;12.148;2023-07-28T10:28:06;22.00;99.90
11304;DHT22;5707;49.588;12.148;2023-07-28T10:30:37;22.20;99.90
11304;DHT22;5707;49.588;12.148;2023-07-28T10:33:04;22.80;99.90
11304;DHT22;5707;49.588;12.148;2023-07-28T10:35:30;23.40;99.90
11304;DHT22;5707;49.588;12.148;2023-07-28T10:37:57;23.80;99.90
11304;DHT22;5707;49.588;12.148;2023-07-28T10:40:33;24.40;99.90
11304;DHT22;5707;49.588;12.148;2023-07-28T10:43:05;25.00;99.90
11304;DHT22;5707;49.588;12.148;2023-07-28T10:45:31;25.70;99.90
11304;DHT22;5707;49.588;12.148;2023-07-28T10:47:58;26.10;99.90
11304;DHT22;5707;49.588;12.148;2023-07-28T10:50:30;26.10;99.90
11304;DHT22;5707;49.588;12.148;2023-07-28T10:52:57;26.50;99.90
11304;DHT22;5707;49.588;12.148;2023-07-28T10:55:24;27.00;99.70
11304;DHT22;5707;49.588;12.148;2023-07-28T10:57:51;27.10;99.90
11304;DHT22;5707;49.588;12.148;2023-07-28T11:00:19;26.80;99.40
11304;DHT22;5707;49.588;12.148;2023-07-28T11:02:45;26.60;99.90
11304;DHT22;5707;49.588;12.148;2023-07-28T11:05:20;26.60;99.90
11304;DHT22;5707;49.588;12.148;2023-07-28T11:07:47;26.90;99.90
11304;DHT22;5707;49.588;12.148;2023-07-28T11:10:13;26.90;99.90
11304;DHT22;5707;49.588;12.148;2023-07-28T11:12:41;26.50;99.90
11304;DHT22;5707;49.588;12.148;2023-07-28T11:15:09;25.70;99.90
11304;DHT22;5707;49.588;12.148;2023-07-28T11:17:39;25.20;99.90
11304;DHT22;5707;49.588;12.148;2023-07-28T11:20:22;25.00;99.90
11304;DHT22;5707;49.588;12.148;2023-07-28T11:23:02;24.80;99.90
11304;DHT22;5707;49.588;12.148;2023-07-28T11:25:29;24.30;99.90
11304;DHT22;5707;49.588;12.148;2023-07-28T11:27:55;23.80;99.90
11304;DHT22;5707;49.588;12.148;2023-07-28T11:30:22;23.40;99.90
11304;DHT22;5707;49.588;12.148;2023-07-28T11:32:50;23.30;99.90
11304;DHT22;5707;49.588;12.148;2023-07-28T11:35:17;23.40;99.90
11304;DHT22;5707;49.588;12.148;2023-07-28T11:37:45;23.50;99.90
11304;DHT22;5707;49.588;12.148;2023-07-28T11:40:15;23.60;99.90
11304;DHT22;5707;49.588;12.148;2023-07-28T11:42:45;23.50;99.90
11304;DHT22;5707;49.588;12.148;2023-07-28T11:45:13;23.40;99.90
11304;DHT22;5707;49.588;12.148;2023-07-28T11:47:38;23.60;99.90
11304;DHT22;5707;49.588;12.148;2023-07-28T11:50:04;23.90;99.90
11304;DHT22;5707;49.588;12.148;2023-07-28T11:52:31;24.40;99.90
11304;DHT22;5707;49.588;12.148;2023-07-28T11:55:01;24.80;99.90
11304;DHT22;5707;49.588;12.148;2023-07-28T11:57:29;25.40;99.90
11304;DHT22;5707;49.588;12.148;2023-07-28T12:00:01;26.10;99.90
11304;DHT22;5707;49.588;12.148;2023-07-28T12:02:31;26.60;99.90
11304;DHT22;5707;49.588;12.148;2023-07-28T12:04:57;26.90;99.90
11304;DHT22;5707;49.588;12.148;2023-07-28T12:07:31;27.20;99.50
11304;DHT22;5707;49.588;12.148;2023-07-28T12:09:57;27.30;99.90
11304;DHT22;5707;49.588;12.148;2023-07-28T12:12:29;27.40;98.10
11304;DHT22;5707;49.588;12.148;2023-07-28T12:14:56;27.60;97.10
11304;DHT22;5707;49.588;12.148;2023-07-28T12:17:23;27.80;94.50
11304;DHT22;5707;49.588;12.148;2023-07-28T12:20:04;27.90;93.40
11304;DHT22;5707;49.588;12.148;2023-07-28T12:22:43;27.60;94.90
11304;DHT22;5707;49.588;12.148;2023-07-28T12:25:09;27.70;93.30
11304;DHT22;5707;49.588;12.148;2023-07-28T12:27:35;27.80;94.60
11304;DHT22;5707;49.588;12.148;2023-07-28T12:30:01;28.00;93.30
11304;DHT22;5707;49.588;12.148;2023-07-28T12:32:27;28.50;92.40
11304;DHT22;5707;49.588;12.148;2023-07-28T12:34:53;28.90;89.60
11304;DHT22;5707;49.588;12.148;2023-07-28T12:37:19;29.00;90.00
11304;DHT22;5707;49.588;12.148;2023-07-28T12:39:45;29.10;84.00
11304;DHT22;5707;49.588;12.148;2023-07-28T12:42:11;29.20;81.70
11304;DHT22;5707;49.588;12.148;2023-07-28T12:44:37;29.00;85.30
11304;DHT22;5707;49.588;12.148;2023-07-28T12:47:03;28.50;89.50
11304;DHT22;5707;49.588;12.148;2023-07-28T12:49:29;28.00;89.30
11304;DHT22;5707;49.588;12.148;2023-07-28T12:51:56;27.50;92.00
11304;DHT22;5707;49.588;12.148;2023-07-28T12:54:22;26.90;93.80
11304;DHT22;5707;49.588;12.148;2023-07-28T12:56:48;26.40;98.50
11304;DHT22;5707;49.588;12.148;2023-07-28T12:59:14;25.90;98.80
11304;DHT22;5707;49.588;12.148;2023-07-28T13:01:40;25.60;99.90
11304;DHT22;5707;49.588;12.148;2023-07-28T13:04:06;25.40;99.90
11304;DHT22;5707;49.588;12.148;2023-07-28T13:06:31;25.30;99.90
11304;DHT22;5707;49.588;12.148;2023-07-28T13:08:57;25.40;99.90
11304;DHT22;5707;49.588;12.148;2023-07-28T13:11:23;25.90;99.90
11304;DHT22;5707;49.588;12.148;2023-07-28T13:13:48;26.10;99.90
11304;DHT22;5707;49.588;12.148;2023-07-28T13:16:14;26.10;99.90
11304;DHT22;5707;49.588;12.148;2023-07-28T13:18:40;26.00;99.90
11304;DHT22;5707;49.588;12.148;2023-07-28T13:21:06;26.30;99.90
11304;DHT22;5707;49.588;12.148;2023-07-28T13:23:32;26.70;98.90
11304;DHT22;5707;49.588;12.148;2023-07-28T13:25:57;27.20;97.00
11304;DHT22;5707;49.588;12.148;2023-07-28T13:28:23;27.60;92.40
11304;DHT22;5707;49.588;12.148;2023-07-28T13:30:51;27.70;91.00
11304;DHT22;5707;49.588;12.148;2023-07-28T13:33:16;27.60;89.70
11304;DHT22;5707;49.588;12.148;2023-07-28T13:35:42;27.50;90.50
11304;DHT22;5707;49.588;12.148;2023-07-28T13:38:08;27.30;92.60
11304;DHT22;5707;49.588;12.148;2023-07-28T13:40:35;27.40;91.10
11304;DHT22;5707;49.588;12.148;2023-07-28T13:43:00;27.50;91.90
11304;DHT22;5707;49.588;12.148;2023-07-28T13:45:26;27.50;93.30
11304;DHT22;5707;49.588;12.148;2023-07-28T13:47:52;27.70;93.40
11304;DHT22;5707;49.588;12.148;2023-07-28T13:50:17;28.10;91.80
11304;DHT22;5707;49.588;12.148;2023-07-28T13:52:43;28.20;89.20
11304;DHT22;5707;49.588;12.148;2023-07-28T13:55:09;28.20;89.70
11304;DHT22;5707;49.588;12.148;2023-07-28T13:57:34;28.20;87.40
11304;DHT22;5707;49.588;12.148;2023-07-28T14:00:00;27.90;89.40
11304;DHT22;5707;49.588;12.148;2023-07-28T14:02:26;27.60;87.10
11304;DHT22;5707;49.588;12.148;2023-07-28T14:04:51;27.40;90.50
11304;DHT22;5707;49.588;12.148;2023-07-28T14:07:17;27.80;90.30
11304;DHT22;5707;49.588;12.148;2023-07-28T14:09:42;28.10;90.10
11304;DHT22;5707;49.588;12.148;2023-07-28T14:12:08;28.60;80.50
11304;DHT22;5707;49.588;12.148;2023-07-28T14:14:34;28.30;79.00
11304;DHT22;5707;49.588;12.148;2023-07-28T14:16:59;28.00;79.80
11304;DHT22;5707;49.588;12.148;2023-07-28T14:19:25;28.10;84.10
11304;DHT22;5707;49.588;12.148;2023-07-28T14:21:51;28.50;81.50
11304;DHT22;5707;49.588;12.148;2023-07-28T14:24:17;28.40;75.40
11304;DHT22;5707;49.588;12.148;2023-07-28T14:26:42;28.10;85.00
11304;DHT22;5707;49.588;12.148;2023-07-28T14:29:08;28.00;84.10
11304;DHT22;5707;49.588;12.148;2023-07-28T14:31:33;28.30;80.60
11304;DHT22;5707;49.588;12.148;2023-07-28T14:34:00;28.30;75.20
11304;DHT22;5707;49.588;12.148;2023-07-28T14:36:25;28.10;76.20
11304;DHT22;5707;49.588;12.148;2023-07-28T14:38:51;28.40;78.60
11304;DHT22;5707;49.588;12.148;2023-07-28T14:41:16;29.20;77.40
11304;DHT22;5707;49.588;12.148;2023-07-28T14:43:42;29.40;76.00
11304;DHT22;5707;49.588;12.148;2023-07-28T14:46:07;29.10;71.60
11304;DHT22;5707;49.588;12.148;2023-07-28T14:48:33;28.40;71.90
11304;DHT22;5707;49.588;12.148;2023-07-28T14:51:00;27.80;79.30
11304;DHT22;5707;49.588;12.148;2023-07-28T14:53:36;27.40;84.60
11304;DHT22;5707;49.588;12.148;2023-07-28T14:56:04;27.20;82.40
11304;DHT22;5707;49.588;12.148;2023-07-28T14:58:30;26.90;86.90
11304;DHT22;5707;49.588;12.148;2023-07-28T15:00:55;26.80;86.20
11304;DHT22;5707;49.588;12.148;2023-07-28T15:03:22;26.70;91.00
11304;DHT22;5707;49.588;12.148;2023-07-28T15:05:48;26.70;90.40
11304;DHT22;5707;49.588;12.148;2023-07-28T15:08:14;26.60;92.60
11304;DHT22;5707;49.588;12.148;2023-07-28T15:10:40;26.60;92.70
11304;DHT22;5707;49.588;12.148;2023-07-28T15:13:06;26.70;91.90
11304;DHT22;5707;49.588;12.148;2023-07-28T15:15:31;26.60;90.40
11304;DHT22;5707;49.588;12.148;2023-07-28T15:17:57;26.30;91.00
11304;DHT22;5707;49.588;12.148;2023-07-28T15:20:22;26.10;90.20
11304;DHT22;5707;49.588;12.148;2023-07-28T15:22:49;26.10;87.90
11304;DHT22;5707;49.588;12.148;2023-07-28T15:25:15;26.10;90.50
11304;DHT22;5707;49.588;12.148;2023-07-28T15:27:41;26.20;90.00
11304;DHT22;5707;49.588;12.148;2023-07-28T15:30:10;26.10;90.20
11304;DHT22;5707;49.588;12.148;2023-07-28T15:32:37;26.20;88.80
11304;DHT22;5707;49.588;12.148;2023-07-28T15:35:03;26.00;90.60